sensor_id;sensor_type;location;lat;lon;timestamp;pressure;altitude;pressure_sealevel;temperature;humidity
73267;BME280;61495;53.400;7.608;2023-07-31T00:01:14;100714.38;;;16.17;95.57
73267;BME280;61495;53.400;7.608;2023-07-31T00:03:40;100717.09;;;16.17;97.28
73267;BME280;61495;53.400;7.608;2023-07-31T00:06:05;100720.84;;;16.16;96.90
73267;BME280;61495;53.400;7.608;2023-07-31T00:08:30;100713.00;;;16.15;97.33
73267;BME280;61495;53.400;7.608;2023-07-31T00:10:56;100709.69;;;16.12;99.39
73267;BME280;61495;53.400;7.608;2023-07-31T00:13:21;100717.25;;;16.10;99.49
73267;BME280;61495;53.400;7.608;2023-07-31T00:15:47;100720.50;;;16.12;98.25
73267;BME280;61495;53.400;7.608;2023-07-31T00:18:12;100711.84;;;16.10;99.64
73267;BME280;61495;53.400;7.608;2023-07-31T00:20:37;100709.13;;;16.10;99.49
73267;BME280;61495;53.400;7.608;2023-07-31T00:23:03;100709.69;;;16.12;99.13
73267;BME280;61495;53.400;7.608;2023-07-31T00:25:28;100696.19;;;16.12;99.00
73267;BME280;61495;53.400;7.608;2023-07-31T00:27:53;100704.78;;;16.09;99.24
73267;BME280;61495;53.400;7.608;2023-07-31T00:30:19;100697.25;;;16.11;98.50
73267;BME280;61495;53.400;7.608;2023-07-31T00:32:44;100705.38;;;16.11;98.44
73267;BME280;61495;53.400;7.608;2023-07-31T00:35:09;100698.88;;;16.12;98.76
73267;BME280;61495;53.400;7.608;2023-07-31T00:37:35;100703.16;;;16.08;98.99
73267;BME280;61495;53.400;7.608;2023-07-31T00:40:00;100704.97;;;16.03;98.95
73267;BME280;61495;53.400;7.608;2023-07-31T00:42:26;100696.25;;;16.01;98.78
73267;BME280;61495;53.400;7.608;2023-07-31T00:44:51;100695.22;;;16.02;98.20
73267;BME280;61495;53.400;7.608;2023-07-31T00:47:16;100697.91;;;16.02;98.84
73267;BME280;61495;53.400;7.608;2023-07-31T00:49:42;100701.19;;;16.04;97.93
73267;BME280;61495;53.400;7.608;2023-07-31T00:52:09;100698.75;;;16.02;98.72
73267;BME280;61495;53.400;7.608;2023-07-31T00:54:34;100699.78;;;16.01;98.02
73267;BME280;61495;53.400;7.608;2023-07-31T00:57:00;100691.13;;;15.99;98.67
73267;BME280;61495;53.400;7.608;2023-07-31T00:59:25;100682.19;;;15.99;98.12
73267;BME280;61495;53.400;7.608;2023-07-31T01:01:51;100685.72;;;15.99;97.20
73267;BME280;61495;53.400;7.608;2023-07-31T01:04:17;100676.78;;;15.99;96.98
73267;BME280;61495;53.400;7.608;2023-07-31T01:06:56;100677.59;;;15.99;97.28
73267;BME280;61495;53.400;7.608;2023-07-31T01:12:01;100667.84;;;15.98;95.34
73267;BME280;61495;53.400;7.608;2023-07-31T01:14:26;100666.13;;;15.92;97.04
73267;BME280;61495;53.400;7.608;2023-07-31T01:16:52;100662.88;;;15.90;96.77
73267;BME280;61495;53.400;7.608;2023-07-31T01:19:24;100661.81;;;15.91;96.62
73267;BME280;61495;53.400;7.608;2023-07-31T01:22:21;100660.09;;;15.85;97.58
73267;BME280;61495;53.400;7.608;2023-07-31T01:27:30;100665.16;;;15.82;97.96
73267;BME280;61495;53.400;7.608;2023-07-31T01:30:05;100664.34;;;15.81;98.22
73267;BME280;61495;53.400;7.608;2023-07-31T01:32:40;100655.19;;;15.82;98.03
73267;BME280;61495;53.400;7.608;2023-07-31T01:35:07;100661.06;;;15.79;97.96
73267;BME280;61495;53.400;7.608;2023-07-31T01:37:34;100653.34;;;15.71;99.63
73267;BME280;61495;53.400;7.608;2023-07-31T01:39:59;100649.94;;;15.76;99.26
73267;BME280;61495;53.400;7.608;2023-07-31T01:42:24;100645.44;;;15.81;98.38
73267;BME280;61495;53.400;7.608;2023-07-31T01:44:50;100646.00;;;15.83;98.64
73267;BME280;61495;53.400;7.608;2023-07-31T01:47:15;100643.22;;;15.78;99.08
73267;BME280;61495;53.400;7.608;2023-07-31T01:49:40;100642.88;;;15.75;99.62
73267;BME280;61495;53.400;7.608;2023-07-31T01:52:06;100650.16;;;15.74;100.00
73267;BME280;61495;53.400;7.608;2023-07-31T01:54:31;100640.13;;;15.70;100.00
73267;BME280;61495;53.400;7.608;2023-07-31T01:56:57;100643.72;;;15.75;100.00
73267;BME280;61495;53.400;7.608;2023-07-31T01:59:23;100642.56;;;15.71;100.00
73267;BME280;61495;53.400;7.608;2023-07-31T02:01:48;100643.72;;;15.75;100.00
73267;BME280;61495;53.400;7.608;2023-07-31T02:04:13;100642.56;;;15.71;100.00
73267;BME280;61495;53.400;7.608;2023-07-31T02:06:39;100632.91;;;15.75;100.00
73267;BME280;61495;53.400;7.608;2023-07-31T02:09:04;100633.47;;;15.77;99.83
73267;BME280;61495;53.400;7.608;2023-07-31T02:11:30;100630.47;;;15.74;100.00
73267;BME280;61495;53.400;7.608;2023-07-31T02:13:55;100627.84;;;15.79;98.94
73267;BME280;61495;53.400;7.608;2023-07-31T02:16:21;100627.00;;;15.78;100.00
73267;BME280;61495;53.400;7.608;2023-07-31T02:18:46;100625.28;;;15.72;100.00
73267;BME280;61495;53.400;7.608;2023-07-31T02:21:11;100615.53;;;15.71;100.00
73267;BME280;61495;53.400;7.608;2023-07-31T02:23:37;100612.13;;;15.76;100.00
73267;BME280;61495;53.400;7.608;2023-07-31T02:26:02;100612.03;;;15.71;100.00
73267;BME280;61495;53.400;7.608;2023-07-31T02:28:28;100611.44;;;15.69;100.00
73267;BME280;61495;53.400;7.608;2023-07-31T02:30:57;100609.84;;;15.68;100.00
73267;BME280;61495;53.400;7.608;2023-07-31T02:33:22;100604.66;;;15.66;100.00
73267;BME280;61495;53.400;7.608;2023-07-31T02:35:48;100605.09;;;15.58;100.00
73267;BME280;61495;53.400;7.608;2023-07-31T02:38:13;100608.41;;;15.65;100.00
73267;BME280;61495;53.400;7.608;2023-07-31T02:40:39;100602.94;;;15.60;100.00
73267;BME280;61495;53.400;7.608;2023-07-31T02:43:06;100597.06;;;15.63;100.00
73267;BME280;61495;53.400;7.608;2023-07-31T02:45:32;100594.84;;;15.60;100.00
73267;BME280;61495;53.400;7.608;2023-07-31T02:47:57;100593.19;;;15.59;100.00
73267;BME280;61495;53.400;7.608;2023-07-31T02:50:23;100590.97;;;15.56;100.00
73267;BME280;61495;53.400;7.608;2023-07-31T02:52:48;100585.59;;;15.56;100.00
73267;BME280;61495;53.400;7.608;2023-07-31T02:55:13;100580.50;;;15.60;100.00
73267;BME280;61495;53.400;7.608;2023-07-31T02:57:39;100587.31;;;15.62;100.00
73267;BME280;61495;53.400;7.608;2023-07-31T03:00:05;100583.47;;;15.58;100.00
73267;BME280;61495;53.400;7.608;2023-07-31T03:02:31;100583.47;;;15.58;100.00
73267;BME280;61495;53.400;7.608;2023-07-31T03:04:57;100582.66;;;15.57;100.00
73267;BME280;61495;53.400;7.608;2023-07-31T03:07:22;100582.88;;;15.56;100.00
73267;BME280;61495;53.400;7.608;2023-07-31T03:09:47;100579.69;;;15.59;100.00
73267;BME280;61495;53.400;7.608;2023-07-31T03:12:13;100580.19;;;15.56;100.00
73267;BME280;61495;53.400;7.608;2023-07-31T03:14:38;100583.97;;;15.55;100.00
73267;BME280;61495;53.400;7.608;2023-07-31T03:17:04;100582.31;;;15.54;100.00
73267;BME280;61495;53.400;7.608;2023-07-31T03:19:32;100579.69;;;15.59;100.00
73267;BME280;61495;53.400;7.608;2023-07-31T03:21:58;100574.22;;;15.54;100.00
73267;BME280;61495;53.400;7.608;2023-07-31T03:24:24;100581.00;;;15.56;100.00
73267;BME280;61495;53.400;7.608;2023-07-31T03:26:49;100576.44;;;15.57;100.00
73267;BME280;61495;53.400;7.608;2023-07-31T03:29:14;100577.66;;;15.49;100.00
73267;BME280;61495;53.400;7.608;2023-07-31T03:31:40;100576.59;;;15.50;100.00
73267;BME280;61495;53.400;7.608;2023-07-31T03:34:05;100571.34;;;15.44;100.00
73267;BME280;61495;53.400;7.608;2023-07-31T03:36:31;100567.75;;;15.55;100.00
73267;BME280;61495;53.400;7.608;2023-07-31T03:38:57;100570.47;;;15.55;100.00
73267;BME280;61495;53.400;7.608;2023-07-31T03:41:22;100569.88;;;15.53;100.00
73267;BME280;61495;53.400;7.608;2023-07-31T03:43:50;100573.16;;;15.55;100.00
73267;BME280;61495;53.400;7.608;2023-07-31T03:46:21;100571.53;;;15.54;100.00
73267;BME280;61495;53.400;7.608;2023-07-31T03:48:47;100566.72;;;15.44;100.00
73267;BME280;61495;53.400;7.608;2023-07-31T03:51:12;100570.25;;;15.45;100.00
73267;BME280;61495;53.400;7.608;2023-07-31T03:53:38;100569.56;;;15.49;100.00
73267;BME280;61495;53.400;7.608;2023-07-31T03:56:03;100564.41;;;15.48;100.00
73267;BME280;61495;53.400;7.608;2023-07-31T03:58:29;100558.75;;;15.49;100.00
73267;BME280;61495;53.400;7.608;2023-07-31T04:00:54;100560.66;;;15.49;100.00
73267;BME280;61495;53.400;7.608;2023-07-31T04:03:19;100561.69;;;15.48;100.00
73267;BME280;61495;53.400;7.608;2023-07-31T04:05:45;100567.75;;;15.55;100.00
73267;BME280;61495;53.400;7.608;2023-07-31T04:08:10;100563.97;;;15.56;100.00
73267;BME280;61495;53.400;7.608;2023-07-31T04:10:35;100565.22;;;15.48;100.00
73267;BME280;61495;53.400;7.608;2023-07-31T04:13:01;100569.63;;;15.54;100.00
73267;BME280;61495;53.400;7.608;2023-07-31T04:15:26;100563.91;;;15.51;100.00
73267;BME280;61495;53.400;7.608;2023-07-31T04:17:51;100562.84;;;15.52;100.00
73267;BME280;61495;53.400;7.608;2023-07-31T04:20:17;100562.53;;;15.48;100.00
73267;BME280;61495;53.400;7.608;2023-07-31T04:22:42;100565.00;;;15.50;100.00
73267;BME280;61495;53.400;7.608;2023-07-31T04:25:08;100554.19;;;15.50;100.00
73267;BME280;61495;53.400;7.608;2023-07-31T04:27:33;100547.16;;;15.49;100.00
73267;BME280;61495;53.400;7.608;2023-07-31T04:29:58;100547.38;;;15.47;100.00
73267;BME280;61495;53.400;7.608;2023-07-31T04:32:24;100547.16;;;15.49;100.00
73267;BME280;61495;53.400;7.608;2023-07-31T04:34:49;100541.47;;;15.50;100.00
73267;BME280;61495;53.400;7.608;2023-07-31T04:37:15;100543.38;;;15.50;100.00
73267;BME280;61495;53.400;7.608;2023-07-31T04:39:40;100549.91;;;15.54;100.00
73267;BME280;61495;53.400;7.608;2023-07-31T04:42:05;100547.47;;;15.52;100.00
73267;BME280;61495;53.400;7.608;2023-07-31T04:44:31;100552.06;;;15.52;100.00
73267;BME280;61495;53.400;7.608;2023-07-31T04:46:56;100548.25;;;15.53;100.00
73267;BME280;61495;53.400;7.608;2023-07-31T04:49:22;100548.88;;;15.55;100.00
73267;BME280;61495;53.400;7.608;2023-07-31T04:51:47;100549.91;;;15.54;100.00
73267;BME280;61495;53.400;7.608;2023-07-31T04:54:12;100536.97;;;15.56;100.00
73267;BME280;61495;53.400;7.608;2023-07-31T04:56:40;100543.69;;;15.53;100.00
73267;BME280;61495;53.400;7.608;2023-07-31T04:59:06;100541.25;;;15.52;100.00
73267;BME280;61495;53.400;7.608;2023-07-31T05:01:31;100539.13;;;15.54;100.00
73267;BME280;61495;53.400;7.608;2023-07-31T05:03:57;100544.50;;;15.54;100.00
73267;BME280;61495;53.400;7.608;2023-07-31T05:06:22;100536.41;;;15.54;100.00
73267;BME280;61495;53.400;7.608;2023-07-31T05:08:48;100539.19;;;15.59;100.00
73267;BME280;61495;53.400;7.608;2023-07-31T05:11:13;100538.63;;;15.57;100.00
73267;BME280;61495;53.400;7.608;2023-07-31T05:13:38;100532.41;;;15.56;100.00
73267;BME280;61495;53.400;7.608;2023-07-31T05:16:04;100533.56;;;15.61;100.00
73267;BME280;61495;53.400;7.608;2023-07-31T05:18:29;100533.22;;;15.57;100.00
73267;BME280;61495;53.400;7.608;2023-07-31T05:20:55;100538.94;;;15.61;100.00
73267;BME280;61495;53.400;7.608;2023-07-31T05:23:20;100525.13;;;15.57;100.00
73267;BME280;61495;53.400;7.608;2023-07-31T05:25:45;100528.31;;;15.54;100.00
73267;BME280;61495;53.400;7.608;2023-07-31T05:28:12;100521.91;;;15.60;100.00
73267;BME280;61495;53.400;7.608;2023-07-31T05:30:37;100516.84;;;15.64;100.00
73267;BME280;61495;53.400;7.608;2023-07-31T05:33:03;100523.63;;;15.66;100.00
73267;BME280;61495;53.400;7.608;2023-07-31T05:35:28;100513.88;;;15.65;100.00
73267;BME280;61495;53.400;7.608;2023-07-31T05:37:53;100514.38;;;15.62;100.00
73267;BME280;61495;53.400;7.608;2023-07-31T05:40:19;100508.97;;;15.62;100.00
73267;BME280;61495;53.400;7.608;2023-07-31T05:42:44;100506.38;;;15.67;100.00
73267;BME280;61495;53.400;7.608;2023-07-31T05:45:09;100508.47;;;15.65;100.00
73267;BME280;61495;53.400;7.608;2023-07-31T05:47:35;100504.72;;;15.66;100.00
73267;BME280;61495;53.400;7.608;2023-07-31T05:50:01;100516.69;;;15.70;100.00
73267;BME280;61495;53.400;7.608;2023-07-31T05:52:26;100516.19;;;15.73;100.00
73267;BME280;61495;53.400;7.608;2023-07-31T05:54:52;100509.97;;;15.73;100.00
73267;BME280;61495;53.400;7.608;2023-07-31T05:57:18;100504.56;;;15.73;100.00
73267;BME280;61495;53.400;7.608;2023-07-31T05:59:43;100508.63;;;15.75;100.00
73267;BME280;61495;53.400;7.608;2023-07-31T06:02:08;100510.28;;;15.76;100.00
73267;BME280;61495;53.400;7.608;2023-07-31T06:04:34;100502.59;;;15.68;100.00
73267;BME280;61495;53.400;7.608;2023-07-31T06:06:59;100506.19;;;15.74;100.00
73267;BME280;61495;53.400;7.608;2023-07-31T06:09:25;100511.28;;;15.70;100.00
73267;BME280;61495;53.400;7.608;2023-07-31T06:11:51;100510.28;;;15.76;100.00
73267;BME280;61495;53.400;7.608;2023-07-31T06:14:16;100502.09;;;15.71;100.00
73267;BME280;61495;53.400;7.608;2023-07-31T06:16:41;100497.50;;;15.72;100.00
73267;BME280;61495;53.400;7.608;2023-07-31T06:19:07;100505.44;;;15.78;100.00
73267;BME280;61495;53.400;7.608;2023-07-31T06:21:33;100508.69;;;15.80;100.00
73267;BME280;61495;53.400;7.608;2023-07-31T06:23:58;100510.84;;;15.78;100.00
73267;BME280;61495;53.400;7.608;2023-07-31T06:26:24;100508.69;;;15.80;100.00
73267;BME280;61495;53.400;7.608;2023-07-31T06:28:49;100516.06;;;15.85;100.00
73267;BME280;61495;53.400;7.608;2023-07-31T06:31:14;100512.28;;;15.86;100.00
73267;BME280;61495;53.400;7.608;2023-07-31T06:33:40;100508.78;;;15.85;100.00
73267;BME280;61495;53.400;7.608;2023-07-31T06:36:05;100500.19;;;15.88;100.00
73267;BME280;61495;53.400;7.608;2023-07-31T06:38:31;100498.28;;;15.89;100.00
73267;BME280;61495;53.400;7.608;2023-07-31T06:40:56;100499.09;;;15.89;100.00
73267;BME280;61495;53.400;7.608;2023-07-31T06:43:22;100489.44;;;15.93;100.00
73267;BME280;61495;53.400;7.608;2023-07-31T06:45:47;100488.38;;;15.94;100.00
73267;BME280;61495;53.400;7.608;2023-07-31T06:48:16;100483.53;;;15.96;100.00
73267;BME280;61495;53.400;7.608;2023-07-31T06:50:41;100477.63;;;15.99;100.00
73267;BME280;61495;53.400;7.608;2023-07-31T06:53:06;100476.31;;;16.02;100.00
73267;BME280;61495;53.400;7.608;2023-07-31T06:55:32;100479.56;;;16.04;100.00
73267;BME280;61495;53.400;7.608;2023-07-31T06:57:57;100482.03;;;16.05;100.00
73267;BME280;61495;53.400;7.608;2023-07-31T07:00:23;100473.91;;;16.05;100.00
73267;BME280;61495;53.400;7.608;2023-07-31T07:02:49;100465.31;;;16.08;100.00
73267;BME280;61495;53.400;7.608;2023-07-31T07:05:16;100463.16;;;16.10;100.00
73267;BME280;61495;53.400;7.608;2023-07-31T07:07:41;100464.81;;;16.11;100.00
73267;BME280;61495;53.400;7.608;2023-07-31T07:10:07;100456.75;;;16.17;100.00
73267;BME280;61495;53.400;7.608;2023-07-31T07:12:33;100461.66;;;16.20;100.00
73267;BME280;61495;53.400;7.608;2023-07-31T07:14:59;100463.28;;;16.21;100.00
73267;BME280;61495;53.400;7.608;2023-07-31T07:17:26;100454.91;;;16.22;100.00
73267;BME280;61495;53.400;7.608;2023-07-31T07:19:51;100455.75;;;16.23;100.00
73267;BME280;61495;53.400;7.608;2023-07-31T07:22:17;100448.41;;;16.18;100.00
73267;BME280;61495;53.400;7.608;2023-07-31T07:24:43;100447.63;;;16.23;100.00
73267;BME280;61495;53.400;7.608;2023-07-31T07:27:08;100449.81;;;16.26;100.00
73267;BME280;61495;53.400;7.608;2023-07-31T07:29:34;100446.34;;;16.30;100.00
73267;BME280;61495;53.400;7.608;2023-07-31T07:32:00;100447.16;;;16.31;100.00
73267;BME280;61495;53.400;7.608;2023-07-31T07:34:26;100442.06;;;16.34;100.00
73267;BME280;61495;53.400;7.608;2023-07-31T07:36:52;100440.75;;;16.37;100.00
73267;BME280;61495;53.400;7.608;2023-07-31T07:39:17;100438.31;;;16.35;100.00
73267;BME280;61495;53.400;7.608;2023-07-31T07:41:43;100436.97;;;16.38;100.00
73267;BME280;61495;53.400;7.608;2023-07-31T07:44:08;100434.00;;;16.39;100.00
73267;BME280;61495;53.400;7.608;2023-07-31T07:46:34;100424.84;;;16.40;100.00
73267;BME280;61495;53.400;7.608;2023-07-31T07:48:59;100421.91;;;16.42;100.00
73267;BME280;61495;53.400;7.608;2023-07-31T07:51:24;100428.06;;;16.37;100.00
73267;BME280;61495;53.400;7.608;2023-07-31T07:53:50;100426.16;;;16.38;100.00
73267;BME280;61495;53.400;7.608;2023-07-31T07:56:15;100423.50;;;16.43;100.00
73267;BME280;61495;53.400;7.608;2023-07-31T07:58:41;100419.75;;;16.44;100.00
73267;BME280;61495;53.400;7.608;2023-07-31T08:01:06;100409.53;;;16.51;100.00
73267;BME280;61495;53.400;7.608;2023-07-31T08:03:31;100408.78;;;16.55;100.00
73267;BME280;61495;53.400;7.608;2023-07-31T08:06:00;100409.13;;;16.64;100.00
73267;BME280;61495;53.400;7.608;2023-07-31T08:08:27;100396.16;;;16.66;100.00
73267;BME280;61495;53.400;7.608;2023-07-31T08:10:53;100394.84;;;16.69;100.00
73267;BME280;61495;53.400;7.608;2023-07-31T08:13:18;100404.38;;;16.76;100.00
73267;BME280;61495;53.400;7.608;2023-07-31T08:15:43;100394.69;;;16.80;100.00
73267;BME280;61495;53.400;7.608;2023-07-31T08:18:10;100393.66;;;16.86;100.00
73267;BME280;61495;53.400;7.608;2023-07-31T08:20:37;100389.91;;;16.92;100.00
73267;BME280;61495;53.400;7.608;2023-07-31T08:23:03;100380.69;;;16.93;100.00
73267;BME280;61495;53.400;7.608;2023-07-31T08:25:29;100375.34;;;16.98;100.00
73267;BME280;61495;53.400;7.608;2023-07-31T08:27:55;100379.72;;;17.04;100.00
73267;BME280;61495;53.400;7.608;2023-07-31T08:30:21;100377.78;;;17.05;100.00
73267;BME280;61495;53.400;7.608;2023-07-31T08:32:46;100380.78;;;17.03;100.00
73267;BME280;61495;53.400;7.608;2023-07-31T08:35:11;100377.75;;;17.00;100.00
73267;BME280;61495;53.400;7.608;2023-07-31T08:37:38;100375.34;;;17.03;100.00
73267;BME280;61495;53.400;7.608;2023-07-31T08:40:05;100371.59;;;17.04;100.00
73267;BME280;61495;53.400;7.608;2023-07-31T08:42:31;100370.75;;;17.04;100.00
73267;BME280;61495;53.400;7.608;2023-07-31T08:44:57;100377.53;;;17.01;100.00
73267;BME280;61495;53.400;7.608;2023-07-31T08:47:25;100368.88;;;17.04;100.00
73267;BME280;61495;53.400;7.608;2023-07-31T08:49:51;100373.72;;;17.02;100.00
73267;BME280;61495;53.400;7.608;2023-07-31T08:52:17;100372.88;;;16.97;100.00
73267;BME280;61495;53.400;7.608;2023-07-31T08:54:43;100368.81;;;16.99;100.00
73267;BME280;61495;53.400;7.608;2023-07-31T08:57:09;100366.16;;;17.04;100.00
73267;BME280;61495;53.400;7.608;2023-07-31T08:59:36;100368.59;;;17.06;100.00
73267;BME280;61495;53.400;7.608;2023-07-31T09:02:05;100371.03;;;17.07;100.00
73267;BME280;61495;53.400;7.608;2023-07-31T09:04:33;100365.06;;;17.05;100.00
73267;BME280;61495;53.400;7.608;2023-07-31T09:07:03;100358.91;;;17.10;100.00
73267;BME280;61495;53.400;7.608;2023-07-31T09:09:33;100356.44;;;17.08;100.00
73267;BME280;61495;53.400;7.608;2023-07-31T09:11:58;100360.47;;;17.06;100.00
73267;BME280;61495;53.400;7.608;2023-07-31T09:14:27;100349.94;;;17.09;100.00
73267;BME280;61495;53.400;7.608;2023-07-31T09:16:57;100342.66;;;17.10;100.00
73267;BME280;61495;53.400;7.608;2023-07-31T09:19:32;100346.44;;;17.09;100.00
73267;BME280;61495;53.400;7.608;2023-07-31T09:21:59;100337.47;;;17.03;100.00
73267;BME280;61495;53.400;7.608;2023-07-31T09:24:28;100331.00;;;17.09;100.00
73267;BME280;61495;53.400;7.608;2023-07-31T09:26:55;100328.84;;;17.11;100.00
73267;BME280;61495;53.400;7.608;2023-07-31T09:29:24;100332.09;;;17.13;100.00
73267;BME280;61495;53.400;7.608;2023-07-31T09:31:50;100333.72;;;17.14;100.00
73267;BME280;61495;53.400;7.608;2023-07-31T09:34:15;100320.22;;;17.19;100.00
73267;BME280;61495;53.400;7.608;2023-07-31T09:36:50;100321.31;;;17.23;100.00
73267;BME280;61495;53.400;7.608;2023-07-31T09:39:17;100317.28;;;17.26;100.00
73267;BME280;61495;53.400;7.608;2023-07-31T09:41:48;100318.63;;;17.29;100.00
73267;BME280;61495;53.400;7.608;2023-07-31T09:44:18;100321.94;;;17.41;100.00
73267;BME280;61495;53.400;7.608;2023-07-31T09:46:43;100318.16;;;17.42;100.00
73267;BME280;61495;53.400;7.608;2023-07-31T09:49:11;100315.47;;;17.47;100.00
73267;BME280;61495;53.400;7.608;2023-07-31T09:51:41;100314.72;;;17.56;100.00
73267;BME280;61495;53.400;7.608;2023-07-31T09:54:11;100316.09;;;17.64;100.00
73267;BME280;61495;53.400;7.608;2023-07-31T09:56:48;100316.09;;;17.64;100.00
73267;BME280;61495;53.400;7.608;2023-07-31T09:59:16;100307.44;;;17.62;100.00
73267;BME280;61495;53.400;7.608;2023-07-31T10:01:43;100300.38;;;17.61;100.00
73267;BME280;61495;53.400;7.608;2023-07-31T10:04:10;100301.19;;;17.61;100.00
73267;BME280;61495;53.400;7.608;2023-07-31T10:06:37;100309.06;;;17.63;100.00
73267;BME280;61495;53.400;7.608;2023-07-31T10:09:05;100300.94;;;17.68;100.00
73267;BME280;61495;53.400;7.608;2023-07-31T10:11:35;100294.72;;;17.67;100.00
73267;BME280;61495;53.400;7.608;2023-07-31T10:14:03;100290.94;;;17.68;100.00
73267;BME280;61495;53.400;7.608;2023-07-31T10:16:30;100282.81;;;17.73;100.00
73267;BME280;61495;53.400;7.608;2023-07-31T10:18:56;100279.31;;;17.78;100.00
73267;BME280;61495;53.400;7.608;2023-07-31T10:21:22;100286.91;;;17.81;100.00
73267;BME280;61495;53.400;7.608;2023-07-31T10:23:48;100278.25;;;17.84;100.00
73267;BME280;61495;53.400;7.608;2023-07-31T10:26:17;100277.16;;;17.90;100.00
73267;BME280;61495;53.400;7.608;2023-07-31T10:28:45;100272.84;;;17.99;100.00
73267;BME280;61495;53.400;7.608;2023-07-31T10:31:12;100285.03;;;18.02;100.00
73267;BME280;61495;53.400;7.608;2023-07-31T10:33:38;100273.66;;;18.05;100.00
73267;BME280;61495;53.400;7.608;2023-07-31T10:36:19;100272.84;;;18.04;100.00
73267;BME280;61495;53.400;7.608;2023-07-31T10:38:45;100267.41;;;18.09;100.00
73267;BME280;61495;53.400;7.608;2023-07-31T10:41:11;100274.47;;;18.05;100.00
73267;BME280;61495;53.400;7.608;2023-07-31T10:43:37;100266.06;;;18.17;100.00
73267;BME280;61495;53.400;7.608;2023-07-31T10:46:11;100270.69;;;18.16;100.00
73267;BME280;61495;53.400;7.608;2023-07-31T10:48:38;100258.19;;;18.20;100.00
73267;BME280;61495;53.400;7.608;2023-07-31T10:51:10;100265.53;;;18.30;100.00
73267;BME280;61495;53.400;7.608;2023-07-31T10:53:37;100251.94;;;18.35;100.00
73267;BME280;61495;53.400;7.608;2023-07-31T10:56:05;100257.66;;;18.39;100.00
73267;BME280;61495;53.400;7.608;2023-07-31T10:58:31;100252.75;;;18.36;100.00
73267;BME280;61495;53.400;7.608;2023-07-31T11:01:06;100249.25;;;18.40;100.00
73267;BME280;61495;53.400;7.608;2023-07-31T11:04:07;100248.16;;;18.46;100.00
73267;BME280;61495;53.400;7.608;2023-07-31T11:06:36;100260.38;;;18.44;100.00
73267;BME280;61495;53.400;7.608;2023-07-31T11:09:01;100256.00;;;18.48;100.00
73267;BME280;61495;53.400;7.608;2023-07-31T11:11:27;100246.84;;;18.49;100.00
73267;BME280;61495;53.400;7.608;2023-07-31T11:13:53;100256.31;;;18.61;100.00
73267;BME280;61495;53.400;7.608;2023-07-31T11:16:24;100249.53;;;18.64;100.00
73267;BME280;61495;53.400;7.608;2023-07-31T11:18:50;100259.03;;;18.61;100.00
73267;BME280;61495;53.400;7.608;2023-07-31T11:21:24;100250.88;;;18.61;100.00
73267;BME280;61495;53.400;7.608;2023-07-31T11:23:57;100250.88;;;18.61;100.00
73267;BME280;61495;53.400;7.608;2023-07-31T11:26:23;100263.34;;;18.62;100.00
73267;BME280;61495;53.400;7.608;2023-07-31T11:28:50;100259.00;;;18.66;100.00
73267;BME280;61495;53.400;7.608;2023-07-31T11:31:19;100259.28;;;18.65;100.00
73267;BME280;61495;53.400;7.608;2023-07-31T11:33:45;100256.03;;;18.63;100.00
73267;BME280;61495;53.400;7.608;2023-07-31T11:36:20;100251.94;;;18.65;100.00
73267;BME280;61495;53.400;7.608;2023-07-31T11:38:46;100245.75;;;18.55;100.00
73267;BME280;61495;53.400;7.608;2023-07-31T11:41:14;100247.34;;;18.61;100.00
73267;BME280;61495;53.400;7.608;2023-07-31T11:43:40;100242.44;;;18.68;100.00
73267;BME280;61495;53.400;7.608;2023-07-31T11:46:05;100248.97;;;18.67;100.00
73267;BME280;61495;53.400;7.608;2023-07-31T11:48:37;100249.50;;;18.69;100.00
73267;BME280;61495;53.400;7.608;2023-07-31T11:51:08;100244.63;;;18.66;100.00
73267;BME280;61495;53.400;7.608;2023-07-31T11:56:02;100236.53;;;18.56;100.00
73267;BME280;61495;53.400;7.608;2023-07-31T11:58:31;100232.69;;;18.57;100.00
73267;BME280;61495;53.400;7.608;2023-07-31T12:00:57;100230.53;;;18.64;100.00
73267;BME280;61495;53.400;7.608;2023-07-31T12:03:23;100216.41;;;18.67;100.00
73267;BME280;61495;53.400;7.608;2023-07-31T12:05:49;100224.25;;;18.68;100.00
73267;BME280;61495;53.400;7.608;2023-07-31T12:08:14;100217.41;;;18.86;100.00
73267;BME280;61495;53.400;7.608;2023-07-31T12:10:41;100216.28;;;19.02;100.00
73267;BME280;61495;53.400;7.608;2023-07-31T12:13:11;100220.50;;;19.28;100.00
73267;BME280;61495;53.400;7.608;2023-07-31T12:15:43;100221.84;;;19.41;100.00
73267;BME280;61495;53.400;7.608;2023-07-31T12:18:33;100207.16;;;19.47;100.00
73267;BME280;61495;53.400;7.608;2023-07-31T12:20:57;100197.63;;;19.50;100.00
73267;BME280;61495;53.400;7.608;2023-07-31T12:23:25;100212.78;;;19.56;100.00
73267;BME280;61495;53.400;7.608;2023-07-31T12:26:23;100214.66;;;19.60;100.00
73267;BME280;61495;53.400;7.608;2023-07-31T12:28:50;100198.28;;;19.70;100.00
73267;BME280;61495;53.400;7.608;2023-07-31T12:31:18;100198.53;;;19.74;100.00
73267;BME280;61495;53.400;7.608;2023-07-31T12:33:45;100200.16;;;19.75;100.00
73267;BME280;61495;53.400;7.608;2023-07-31T12:36:13;100201.78;;;19.76;100.00
73267;BME280;61495;53.400;7.608;2023-07-31T12:38:39;100190.84;;;19.86;100.00
73267;BME280;61495;53.400;7.608;2023-07-31T12:41:04;100195.72;;;19.89;100.00
73267;BME280;61495;53.400;7.608;2023-07-31T12:43:32;100196.22;;;19.91;100.00
73267;BME280;61495;53.400;7.608;2023-07-31T12:45:57;100197.38;;;19.85;100.00